2A5 weather

Causey Airport
Liberty, North Carolina, United States

Public forecast

Using degrees Fahrenheit for public forecast. Weather courtesy of forecast.io.

Closest aviation weather report (METAR) to Causey Airport

Closest report is Burlington Alamance Regional Airport, 10.7 nm (19.9 km) NE. Retrieved 2020/08/08 22:54 UTC (53 minutes ago):

KBUY 082254Z AUTO 17003KT 10SM CLR 30/23 A3009 RMK AO2 LTG DSNT W AND NW SLP182 T03000228

Closest aviation forecast (TAF) to Causey Airport

Closest forecast is Piedmont Triad International Airport, 19.1 nm (35.4 km) NW. Retrieved 2020/08/08 18:42 UTC (5 hours ago):

TAF KGSO 081740Z 0818/0918 VRB05KT P6SM VCTS SCT025 BKN040CB FM090600 00000KT P6SM SCT250 TEMPO 0908/0912 2SM BR SCT003 FM091200 VRB03KT P6SM SCT015